Superseacat Three — IBGH — position and weather

sailwx.info

Track history (hours):
 
Tides and Currents Weather Stations Pressure Air Temp Water Temp Dewpoint Dewpoint Depression Visibility Wind Speed Wind Dir Waves Ship Positions

Superseacat Three

Operator: Sea Containers Irish Sea Operations

Last reported at 2017-Apr-25 01:18 UTC. Time now 2017-Apr-25 02:54 UTC.
Position N 43°59' E 013°38'.

Length 110 m; draft 5.8 m.

Type: Ship (hazmat cat B). MMSI: 247353300.

Date/timePositionNaut miles runAvg speedWind from/ knotsBaromVisibWave heightAir tempDewpointWater temp
2017-Apr-25 01:18N 43°59' E 013°38'412.3
2017-Apr-25 01:00N 44°02' E 013°33'612.4
2017-Apr-25 00:30N 44°05' E 013°26'612.6
2017-Apr-25 00:00N 44°09' E 013°19'612.4
2017-Apr-24 23:29N 44°14' E 013°13'612.3
2017-Apr-24 23:00N 44°19' E 013°10'612.2
2017-Apr-24 22:30N 44°25' E 013°07'612.3
2017-Apr-24 22:00N 44°31' E 013°05'612.2
2017-Apr-24 21:30N 44°36' E 013°01'612.0
2017-Apr-24 21:00N 44°42' E 012°58'612.4
2017-Apr-24 20:30N 44°48' E 012°55'612.7
2017-Apr-24 20:00N 44°53' E 012°51'612.2
2017-Apr-24 19:30N 44°59' E 012°47'612.3
2017-Apr-24 19:00N 45°04' E 012°43'612.0
2017-Apr-24 18:30N 45°09' E 012°37'611.9
2017-Apr-24 18:00N 45°13' E 012°31'612.2
2017-Apr-24 17:30N 45°17' E 012°26'510.4
2017-Apr-24 17:00N 45°20' E 012°19'4 7.7
2017-Apr-24 16:30N 45°23' E 012°16'3 6.2
2017-Apr-24 16:00N 45°26' E 012°15'1 0.1
2017-Apr-24 06:15N 45°26' E 012°14'0 0.0
2017-Apr-24 05:57N 45°26' E 012°14'0 0.0
2017-Apr-24 05:30N 45°26' E 012°14'0 0.0
2017-Apr-24 05:00N 45°26' E 012°14'0 0.0
2017-Apr-24 04:30N 45°26' E 012°14'0 0.0
2017-Apr-24 03:54N 45°26' E 012°14'0 0.0
2017-Apr-24 03:30N 45°26' E 012°14'0 0.0
2017-Apr-24 02:54N 45°26' E 012°14'0 0.0
2017-Apr-24 02:30N 45°26' E 012°14'0 0.0
2017-Apr-24 02:00N 45°26' E 012°14'0 0.0
2017-Apr-24 01:27N 45°26' E 012°14'0 0.0
2017-Apr-24 00:57N 45°26' E 012°14'0 0.0
2017-Apr-24 00:30N 45°26' E 012°14'0 0.0
2017-Apr-23 23:57N 45°26' E 012°14'0 0.0
2017-Apr-23 23:27N 45°26' E 012°14'0 0.0
2017-Apr-23 22:57N 45°26' E 012°14'0 0.0
2017-Apr-23 22:27N 45°26' E 012°14'0 0.0
2017-Apr-23 21:57N 45°26' E 012°14'0 0.0
2017-Apr-23 21:27N 45°26' E 012°14'0 0.0
2017-Apr-23 19:27N 45°26' E 012°14'0 0.0
2017-Apr-23 18:42N 45°26' E 012°14'0 0.0
2017-Apr-23 18:30N 45°26' E 012°14'0 0.0
2017-Apr-23 18:00N 45°26' E 012°14'0 0.0
2017-Apr-23 17:30N 45°26' E 012°14'0 0.0
2017-Apr-23 16:57N 45°26' E 012°14'0 0.0
2017-Apr-23 16:30N 45°26' E 012°14'0 0.0
2017-Apr-23 16:00N 45°26' E 012°14'0 0.0
2017-Apr-23 15:30N 45°26' E 012°14'0 0.0
2017-Apr-23 14:57N 45°26' E 012°14'3 3.7
2017-Apr-23 14:00N 45°23' E 012°16'4 8.1
2017-Apr-23 13:30N 45°20' E 012°20'611.7
2017-Apr-23 13:00N 45°18' E 012°27'612.4
2017-Apr-23 12:30N 45°15' E 012°35'612.4
2017-Apr-23 12:00N 45°11' E 012°42'612.2
2017-Apr-23 11:30N 45°08' E 012°49'612.7
2017-Apr-23 11:00N 45°02' E 012°52'612.7
2017-Apr-23 10:30N 44°56' E 012°55'612.6
2017-Apr-23 10:00N 44°50' E 012°58'612.4
2017-Apr-23 09:30N 44°44' E 013°01'612.4
2017-Apr-23 09:00N 44°38' E 013°04'612.3
2017-Apr-23 08:30N 44°32' E 013°07'612.1
2017-Apr-23 08:00N 44°27' E 013°10'612.1
2017-Apr-23 07:30N 44°21' E 013°13'  
2017-Apr-19 18:36N 44°30' E 013°05'112.4
2017-Apr-19 18:30N 44°31' E 013°04'612.3
2017-Apr-19 18:00N 44°37' E 013°02'612.3
2017-Apr-19 17:31N 44°43' E 012°59'612.4
2017-Apr-19 17:01N 44°48' E 012°55'712.6
2017-Apr-19 16:30N 44°54' E 012°51'612.5
2017-Apr-19 16:00N 44°60' E 012°47'510.7
2017-Apr-19 15:30N 45°04' E 012°43'5 9.4
2017-Apr-19 15:00N 45°08' E 012°39'510.0
2017-Apr-19 14:30N 45°11' E 012°33'1110.8
2017-Apr-19 13:31N 45°19' E 012°24'1 1.5
2017-Apr-19 12:59N 45°20' E 012°25'0 0.0
2017-Apr-19 12:29N 45°20' E 012°25'0 0.0
2017-Apr-19 11:59N 45°20' E 012°25'0 0.0
2017-Apr-19 11:29N 45°20' E 012°25'0 0.0
2017-Apr-19 10:56N 45°20' E 012°25'0 0.0
2017-Apr-19 10:29N 45°20' E 012°25'0 0.0
2017-Apr-19 09:59N 45°20' E 012°25'0 0.1
2017-Apr-19 09:29N 45°20' E 012°24'0 0.1
2017-Apr-19 08:59N 45°20' E 012°24'0 0.0
2017-Apr-19 08:29N 45°20' E 012°24'0 0.0
2017-Apr-19 07:59N 45°20' E 012°24'0 0.0
2017-Apr-19 07:29N 45°20' E 012°24'0 0.1
2017-Apr-19 06:59N 45°20' E 012°24'0 0.0
2017-Apr-19 06:29N 45°20' E 012°24'0 0.0
2017-Apr-19 05:59N 45°20' E 012°24'0 0.1
2017-Apr-19 05:29N 45°20' E 012°24'0 0.0
2017-Apr-19 04:59N 45°20' E 012°24'0 0.0
2017-Apr-19 04:29N 45°20' E 012°24'0 0.1
2017-Apr-19 03:59N 45°20' E 012°24'0 0.1
2017-Apr-19 03:29N 45°20' E 012°25'0 0.0
2017-Apr-19 02:59N 45°20' E 012°25'0 0.0
2017-Apr-19 02:29N 45°20' E 012°25'0 0.0
2017-Apr-19 02:00N 45°20' E 012°25'0 0.0
2017-Apr-19 01:29N 45°20' E 012°25'0 0.0
2017-Apr-19 00:59N 45°20' E 012°25'0 0.0
2017-Apr-19 00:29N 45°20' E 012°25'0 0.0
2017-Apr-18 23:59N 45°20' E 012°25'0 0.1
2017-Apr-18 23:29N 45°20' E 012°25'0 0.1
2017-Apr-18 22:59N 45°20' E 012°25'0 0.0
2017-Apr-18 22:29N 45°20' E 012°25'0 0.1
2017-Apr-18 21:59N 45°20' E 012°24'0 0.1
2017-Apr-18 21:29N 45°20' E 012°24'0 0.1
2017-Apr-18 21:00N 45°20' E 012°24'0 0.0
2017-Apr-18 20:26N 45°20' E 012°24'0 0.1
2017-Apr-18 20:00N 45°20' E 012°24'0 0.0
2017-Apr-18 19:29N 45°20' E 012°24'0 0.0
2017-Apr-18 18:59N 45°20' E 012°24'0 0.0
2017-Apr-18 18:30N 45°20' E 012°24'0 0.0
2017-Apr-18 17:59N 45°20' E 012°24'0 0.0
2017-Apr-18 17:29N 45°20' E 012°24'0 0.0
2017-Apr-18 16:59N 45°20' E 012°24'0 0.0
2017-Apr-18 16:29N 45°20' E 012°24'0 0.0
2017-Apr-18 15:59N 45°20' E 012°24'0 0.0
2017-Apr-18 15:29N 45°20' E 012°24'0 0.0
2017-Apr-18 15:00N 45°20' E 012°24'0 0.0
2017-Apr-18 14:29N 45°20' E 012°24'0 0.0
2017-Apr-18 13:29N 45°20' E 012°24'0 0.1
2017-Apr-18 12:59N 45°20' E 012°24'0 0.0
2017-Apr-18 12:29N 45°20' E 012°24'0 0.0
2017-Apr-18 11:59N 45°20' E 012°24'0 0.0
2017-Apr-18 11:29N 45°20' E 012°24'0 0.1
2017-Apr-18 10:59N 45°20' E 012°24'0 0.0
2017-Apr-18 10:29N 45°20' E 012°24'0 0.1
2017-Apr-18 09:59N 45°20' E 012°24'0 0.1
2017-Apr-18 09:29N 45°20' E 012°24'0 0.0
2017-Apr-18 08:59N 45°20' E 012°24'0 0.0
2017-Apr-18 08:29N 45°20' E 012°24'0 0.2
2017-Apr-18 07:59N 45°20' E 012°24'0 0.1
2017-Apr-18 07:29N 45°20' E 012°24'0 0.0
2017-Apr-18 06:59N 45°20' E 012°24'0 0.0
2017-Apr-18 06:29N 45°20' E 012°24'0 0.0
2017-Apr-18 05:59N 45°20' E 012°24'0 0.0
2017-Apr-18 05:29N 45°20' E 012°24'0 0.0
2017-Apr-18 04:59N 45°20' E 012°24'0 0.0
2017-Apr-18 04:29N 45°20' E 012°24'0 0.0
2017-Apr-18 03:59N 45°20' E 012°24'0 0.1
2017-Apr-18 03:29N 45°20' E 012°24'0 0.1
2017-Apr-18 02:59N 45°20' E 012°24'0 0.0
2017-Apr-18 02:29N 45°20' E 012°24'0 0.0
2017-Apr-18 01:59N 45°20' E 012°24'0 0.0
2017-Apr-18 01:29N 45°20' E 012°25'0 0.0
2017-Apr-18 00:59N 45°20' E 012°25'0 0.0
2017-Apr-18 00:29N 45°20' E 012°24'0 0.1
2017-Apr-17 23:59N 45°20' E 012°25'0 0.2
2017-Apr-17 23:29N 45°20' E 012°25'0 0.1
2017-Apr-17 22:59N 45°20' E 012°24'0 0.0
2017-Apr-17 22:29N 45°20' E 012°24'0 0.0
2017-Apr-17 21:59N 45°20' E 012°24'0 0.0
2017-Apr-17 21:29N 45°20' E 012°24'0 0.0
2017-Apr-17 20:59N 45°20' E 012°24'0 0.0
2017-Apr-17 20:29N 45°20' E 012°24'0 0.0
2017-Apr-17 19:59N 45°20' E 012°24'0 0.0
2017-Apr-17 19:29N 45°20' E 012°24'0 0.0
2017-Apr-17 18:59N 45°20' E 012°24'0 0.0
2017-Apr-17 18:29N 45°20' E 012°24'0 0.0
2017-Apr-17 17:59N 45°20' E 012°24'0 0.0
2017-Apr-17 17:29N 45°20' E 012°24'0 0.0
2017-Apr-17 16:59N 45°20' E 012°24'0 0.0
2017-Apr-17 16:23N 45°20' E 012°24'0 0.0
2017-Apr-17 15:59N 45°20' E 012°24'0 0.0
2017-Apr-17 15:29N 45°20' E 012°24'0 0.0
2017-Apr-17 14:59N 45°20' E 012°24'0 0.0
2017-Apr-17 14:29N 45°20' E 012°24'0 0.0
2017-Apr-17 13:29N 45°20' E 012°24'0 0.0
2017-Apr-17 12:59N 45°20' E 012°24'0 0.0
2017-Apr-17 12:29N 45°20' E 012°24'0 0.0
2017-Apr-17 11:59N 45°20' E 012°24'0 0.0
2017-Apr-17 11:29N 45°20' E 012°24'0 0.0
2017-Apr-17 10:59N 45°20' E 012°24'0 0.0
2017-Apr-17 10:29N 45°20' E 012°24'0 0.0
2017-Apr-17 09:59N 45°20' E 012°24'0 0.0
2017-Apr-17 09:29N 45°20' E 012°24'0 0.0
2017-Apr-17 08:59N 45°20' E 012°24'0 0.0
2017-Apr-17 08:29N 45°20' E 012°24'0 0.0
2017-Apr-17 07:59N 45°20' E 012°24'0 0.0
2017-Apr-17 07:29N 45°20' E 012°24'0 0.0
2017-Apr-17 06:59N 45°20' E 012°24'0 0.0
2017-Apr-17 06:29N 45°20' E 012°24'0 0.0
2017-Apr-17 05:59N 45°20' E 012°24'0 0.0
2017-Apr-17 05:29N 45°20' E 012°24'0 0.0
2017-Apr-17 04:59N 45°20' E 012°24'0 0.0
2017-Apr-17 04:29N 45°20' E 012°24'0 0.0
2017-Apr-17 03:59N 45°20' E 012°24'0 0.0
2017-Apr-17 03:29N 45°20' E 012°24'0 0.0
2017-Apr-17 02:59N 45°20' E 012°24'0 0.0
2017-Apr-17 02:29N 45°20' E 012°24'0 0.0
2017-Apr-17 01:59N 45°20' E 012°24'0 0.0
2017-Apr-17 01:29N 45°20' E 012°24'0 0.0
2017-Apr-17 00:59N 45°20' E 012°24'0 0.0
2017-Apr-17 00:29N 45°20' E 012°24'0 0.0
2017-Apr-16 23:59N 45°20' E 012°24'0 0.0
2017-Apr-16 23:29N 45°20' E 012°24'0 0.0
2017-Apr-16 22:59N 45°20' E 012°24'0 0.1
2017-Apr-16 22:29N 45°20' E 012°24'0 0.0
2017-Apr-16 21:59N 45°20' E 012°24'0 0.0
2017-Apr-16 21:29N 45°20' E 012°24'0 0.0
2017-Apr-16 20:59N 45°20' E 012°24'0 0.1
2017-Apr-16 20:29N 45°20' E 012°24'0 0.1
2017-Apr-16 19:59N 45°20' E 012°24'0 0.1
2017-Apr-16 19:29N 45°20' E 012°24'0 0.1
2017-Apr-16 18:59N 45°20' E 012°24'0 0.0
2017-Apr-16 18:29N 45°20' E 012°24'0 0.1
2017-Apr-16 18:00N 45°20' E 012°24'0 0.0
2017-Apr-16 17:29N 45°20' E 012°24'0 0.0
2017-Apr-16 16:59N 45°20' E 012°24'0 0.0
2017-Apr-16 16:29N 45°20' E 012°24'0 0.1
2017-Apr-16 15:59N 45°20' E 012°25'0 0.0
2017-Apr-16 15:29N 45°20' E 012°24'0 0.0
2017-Apr-16 14:59N 45°20' E 012°24'0 0.0
2017-Apr-16 13:59N 45°20' E 012°24'0 0.0
2017-Apr-16 13:29N 45°20' E 012°24'0 0.1
2017-Apr-16 12:59N 45°20' E 012°24'0 0.1
2017-Apr-16 12:29N 45°20' E 012°24'0 0.1
2017-Apr-16 11:59N 45°20' E 012°25'0 0.0
2017-Apr-16 11:29N 45°20' E 012°25'0 0.0
2017-Apr-16 10:59N 45°20' E 012°25'0 0.0
2017-Apr-16 10:29N 45°20' E 012°25'0 0.0
2017-Apr-16 09:59N 45°20' E 012°25'0 0.0
2017-Apr-16 09:29N 45°20' E 012°25'0 0.0
2017-Apr-16 08:59N 45°20' E 012°25'0 0.0
2017-Apr-16 08:29N 45°20' E 012°25'0 0.0
2017-Apr-16 07:59N 45°20' E 012°25'0 0.0
2017-Apr-16 07:29N 45°20' E 012°25'0 0.0
2017-Apr-16 06:59N 45°20' E 012°25'0 0.0
2017-Apr-16 06:29N 45°20' E 012°25'0 0.0
2017-Apr-16 05:59N 45°20' E 012°25'0 0.0
2017-Apr-16 05:29N 45°20' E 012°25'0 0.0
2017-Apr-16 04:59N 45°20' E 012°25'0 0.0
2017-Apr-16 04:26N 45°20' E 012°25'0 0.0
2017-Apr-16 03:59N 45°20' E 012°25'0 0.0
2017-Apr-16 03:26N 45°20' E 012°25'0 0.0
2017-Apr-16 02:56N 45°20' E 012°25'0 0.0
2017-Apr-16 02:23N 45°20' E 012°25'0 0.0
2017-Apr-16 01:53N 45°20' E 012°25'0 0.0
2017-Apr-16 01:20N 45°20' E 012°25'0 0.0
2017-Apr-16 00:56N 45°20' E 012°25'0 0.0
2017-Apr-16 00:29N 45°20' E 012°25'0 0.0
2017-Apr-15 23:56N 45°20' E 012°24'0 0.0
2017-Apr-15 23:26N 45°20' E 012°24'0 0.0
2017-Apr-15 22:56N 45°20' E 012°24'0 0.0
2017-Apr-15 22:26N 45°20' E 012°24'0 0.0
2017-Apr-15 21:59N 45°20' E 012°24'0 0.0
2017-Apr-15 21:29N 45°20' E 012°24'0 0.0
2017-Apr-15 20:59N 45°20' E 012°24'0 0.0
2017-Apr-15 20:29N 45°20' E 012°24'0 0.0
2017-Apr-15 19:59N 45°20' E 012°24'0 0.0
2017-Apr-15 19:29N 45°20' E 012°24'0 0.0
2017-Apr-15 18:59N 45°20' E 012°24'0 0.0
2017-Apr-15 18:29N 45°20' E 012°24'0 0.0
2017-Apr-15 17:59N 45°20' E 012°24'0 0.0
2017-Apr-15 17:29N 45°20' E 012°24'0 0.1
2017-Apr-15 16:59N 45°20' E 012°24'0 0.0
2017-Apr-15 16:29N 45°20' E 012°24'0 0.0
2017-Apr-15 15:53N 45°20' E 012°24'0 0.0
2017-Apr-15 15:29N 45°20' E 012°24'0 0.1
2017-Apr-15 14:59N 45°20' E 012°24'0 0.1
2017-Apr-15 14:29N 45°20' E 012°24'0 0.0
2017-Apr-15 13:29N 45°20' E 012°24'0 0.0
2017-Apr-15 12:59N 45°20' E 012°24'0 0.0
2017-Apr-15 12:29N 45°20' E 012°24'0 0.0
2017-Apr-15 11:59N 45°20' E 012°24'0 0.0
2017-Apr-15 11:29N 45°20' E 012°24'0 0.0
2017-Apr-15 10:59N 45°20' E 012°24'0 0.0
2017-Apr-15 10:29N 45°20' E 012°24'0 0.0
2017-Apr-15 09:59N 45°20' E 012°24'0 0.0
2017-Apr-15 09:29N 45°20' E 012°24'0 0.0
2017-Apr-15 08:59N 45°20' E 012°24'0 0.0
2017-Apr-15 08:29N 45°20' E 012°24'0 0.0
2017-Apr-15 07:59N 45°20' E 012°24'0 0.0
2017-Apr-15 07:29N 45°20' E 012°24'0 0.0
2017-Apr-15 06:59N 45°20' E 012°24'0 0.1
2017-Apr-15 06:29N 45°20' E 012°25'0 0.2
2017-Apr-15 05:59N 45°20' E 012°25'0 0.0
2017-Apr-15 05:29N 45°20' E 012°24'0 0.1
2017-Apr-15 04:59N 45°20' E 012°24'0 0.0
2017-Apr-15 04:29N 45°20' E 012°24'0 0.0
2017-Apr-15 03:59N 45°20' E 012°24'0 0.1
2017-Apr-15 03:29N 45°20' E 012°24'0 0.1
2017-Apr-15 02:56N 45°20' E 012°24'0 0.0
2017-Apr-15 02:26N 45°20' E 012°24'0 0.0
2017-Apr-15 01:56N 45°20' E 012°24'0 0.0
2017-Apr-15 01:29N 45°20' E 012°24'  
Track history (hours):
 
Tides and Currents Weather Stations Pressure Air Temp Water Temp Dewpoint Dewpoint Depression Visibility Wind Speed Wind Dir Waves Ship Positions

Superseacat Three

Operator: Sea Containers Irish Sea Operations

Last reported at 2017-Apr-25 01:18 UTC. Time now 2017-Apr-25 02:54 UTC.
Position N 43°59' E 013°38'.

Length 110 m; draft 5.8 m.

Type: Ship (hazmat cat B). MMSI: 247353300.

Date/timePositionNaut miles runAvg speedWind from/ knotsBaromVisibWave heightAir tempDewpointWater temp
2017-Apr-25 01:18N 43°59' E 013°38'412.3
2017-Apr-25 01:00N 44°02' E 013°33'612.4
2017-Apr-25 00:30N 44°05' E 013°26'612.6
2017-Apr-25 00:00N 44°09' E 013°19'612.4
2017-Apr-24 23:29N 44°14' E 013°13'612.3
2017-Apr-24 23:00N 44°19' E 013°10'612.2
2017-Apr-24 22:30N 44°25' E 013°07'612.3
2017-Apr-24 22:00N 44°31' E 013°05'612.2
2017-Apr-24 21:30N 44°36' E 013°01'612.0
2017-Apr-24 21:00N 44°42' E 012°58'612.4
2017-Apr-24 20:30N 44°48' E 012°55'612.7
2017-Apr-24 20:00N 44°53' E 012°51'612.2
2017-Apr-24 19:30N 44°59' E 012°47'612.3
2017-Apr-24 19:00N 45°04' E 012°43'612.0
2017-Apr-24 18:30N 45°09' E 012°37'611.9
2017-Apr-24 18:00N 45°13' E 012°31'612.2
2017-Apr-24 17:30N 45°17' E 012°26'510.4
2017-Apr-24 17:00N 45°20' E 012°19'4 7.7
2017-Apr-24 16:30N 45°23' E 012°16'3 6.2
2017-Apr-24 16:00N 45°26' E 012°15'1 0.1
2017-Apr-24 06:15N 45°26' E 012°14'0 0.0
2017-Apr-24 05:57N 45°26' E 012°14'0 0.0
2017-Apr-24 05:30N 45°26' E 012°14'0 0.0
2017-Apr-24 05:00N 45°26' E 012°14'0 0.0
2017-Apr-24 04:30N 45°26' E 012°14'0 0.0
2017-Apr-24 03:54N 45°26' E 012°14'0 0.0
2017-Apr-24 03:30N 45°26' E 012°14'0 0.0
2017-Apr-24 02:54N 45°26' E 012°14'0 0.0
2017-Apr-24 02:30N 45°26' E 012°14'0 0.0
2017-Apr-24 02:00N 45°26' E 012°14'0 0.0
2017-Apr-24 01:27N 45°26' E 012°14'0 0.0
2017-Apr-24 00:57N 45°26' E 012°14'0 0.0
2017-Apr-24 00:30N 45°26' E 012°14'0 0.0
2017-Apr-23 23:57N 45°26' E 012°14'0 0.0
2017-Apr-23 23:27N 45°26' E 012°14'0 0.0
2017-Apr-23 22:57N 45°26' E 012°14'0 0.0
2017-Apr-23 22:27N 45°26' E 012°14'0 0.0
2017-Apr-23 21:57N 45°26' E 012°14'0 0.0
2017-Apr-23 21:27N 45°26' E 012°14'0 0.0
2017-Apr-23 19:27N 45°26' E 012°14'0 0.0
2017-Apr-23 18:42N 45°26' E 012°14'0 0.0
2017-Apr-23 18:30N 45°26' E 012°14'0 0.0
2017-Apr-23 18:00N 45°26' E 012°14'0 0.0
2017-Apr-23 17:30N 45°26' E 012°14'0 0.0
2017-Apr-23 16:57N 45°26' E 012°14'0 0.0
2017-Apr-23 16:30N 45°26' E 012°14'0 0.0
2017-Apr-23 16:00N 45°26' E 012°14'0 0.0
2017-Apr-23 15:30N 45°26' E 012°14'0 0.0
2017-Apr-23 14:57N 45°26' E 012°14'3 3.7
2017-Apr-23 14:00N 45°23' E 012°16'4 8.1
2017-Apr-23 13:30N 45°20' E 012°20'611.7
2017-Apr-23 13:00N 45°18' E 012°27'612.4
2017-Apr-23 12:30N 45°15' E 012°35'612.4
2017-Apr-23 12:00N 45°11' E 012°42'612.2
2017-Apr-23 11:30N 45°08' E 012°49'612.7
2017-Apr-23 11:00N 45°02' E 012°52'612.7
2017-Apr-23 10:30N 44°56' E 012°55'612.6
2017-Apr-23 10:00N 44°50' E 012°58'612.4
2017-Apr-23 09:30N 44°44' E 013°01'612.4
2017-Apr-23 09:00N 44°38' E 013°04'612.3
2017-Apr-23 08:30N 44°32' E 013°07'612.1
2017-Apr-23 08:00N 44°27' E 013°10'612.1
2017-Apr-23 07:30N 44°21' E 013°13'  
2017-Apr-19 18:36N 44°30' E 013°05'112.4
2017-Apr-19 18:30N 44°31' E 013°04'612.3
2017-Apr-19 18:00N 44°37' E 013°02'612.3
2017-Apr-19 17:31N 44°43' E 012°59'612.4
2017-Apr-19 17:01N 44°48' E 012°55'712.6
2017-Apr-19 16:30N 44°54' E 012°51'612.5
2017-Apr-19 16:00N 44°60' E 012°47'510.7
2017-Apr-19 15:30N 45°04' E 012°43'5 9.4
2017-Apr-19 15:00N 45°08' E 012°39'510.0
2017-Apr-19 14:30N 45°11' E 012°33'1110.8
2017-Apr-19 13:31N 45°19' E 012°24'1 1.5
2017-Apr-19 12:59N 45°20' E 012°25'0 0.0
2017-Apr-19 12:29N 45°20' E 012°25'0 0.0
2017-Apr-19 11:59N 45°20' E 012°25'0 0.0
2017-Apr-19 11:29N 45°20' E 012°25'0 0.0
2017-Apr-19 10:56N 45°20' E 012°25'0 0.0
2017-Apr-19 10:29N 45°20' E 012°25'0 0.0
2017-Apr-19 09:59N 45°20' E 012°25'0 0.1
2017-Apr-19 09:29N 45°20' E 012°24'0 0.1
2017-Apr-19 08:59N 45°20' E 012°24'0 0.0
2017-Apr-19 08:29N 45°20' E 012°24'0 0.0
2017-Apr-19 07:59N 45°20' E 012°24'0 0.0
2017-Apr-19 07:29N 45°20' E 012°24'0 0.1
2017-Apr-19 06:59N 45°20' E 012°24'0 0.0
2017-Apr-19 06:29N 45°20' E 012°24'0 0.0
2017-Apr-19 05:59N 45°20' E 012°24'0 0.1
2017-Apr-19 05:29N 45°20' E 012°24'0 0.0
2017-Apr-19 04:59N 45°20' E 012°24'0 0.0
2017-Apr-19 04:29N 45°20' E 012°24'0 0.1
2017-Apr-19 03:59N 45°20' E 012°24'0 0.1
2017-Apr-19 03:29N 45°20' E 012°25'0 0.0
2017-Apr-19 02:59N 45°20' E 012°25'0 0.0
2017-Apr-19 02:29N 45°20' E 012°25'0 0.0
2017-Apr-19 02:00N 45°20' E 012°25'0 0.0
2017-Apr-19 01:29N 45°20' E 012°25'0 0.0
2017-Apr-19 00:59N 45°20' E 012°25'0 0.0
2017-Apr-19 00:29N 45°20' E 012°25'0 0.0
2017-Apr-18 23:59N 45°20' E 012°25'0 0.1
2017-Apr-18 23:29N 45°20' E 012°25'0 0.1
2017-Apr-18 22:59N 45°20' E 012°25'0 0.0
2017-Apr-18 22:29N 45°20' E 012°25'0 0.1
2017-Apr-18 21:59N 45°20' E 012°24'0 0.1
2017-Apr-18 21:29N 45°20' E 012°24'0 0.1
2017-Apr-18 21:00N 45°20' E 012°24'0 0.0
2017-Apr-18 20:26N 45°20' E 012°24'0 0.1
2017-Apr-18 20:00N 45°20' E 012°24'0 0.0
2017-Apr-18 19:29N 45°20' E 012°24'0 0.0
2017-Apr-18 18:59N 45°20' E 012°24'0 0.0
2017-Apr-18 18:30N 45°20' E 012°24'0 0.0
2017-Apr-18 17:59N 45°20' E 012°24'0 0.0
2017-Apr-18 17:29N 45°20' E 012°24'0 0.0
2017-Apr-18 16:59N 45°20' E 012°24'0 0.0
2017-Apr-18 16:29N 45°20' E 012°24'0 0.0
2017-Apr-18 15:59N 45°20' E 012°24'0 0.0
2017-Apr-18 15:29N 45°20' E 012°24'0 0.0
2017-Apr-18 15:00N 45°20' E 012°24'0 0.0
2017-Apr-18 14:29N 45°20' E 012°24'0 0.0
2017-Apr-18 13:29N 45°20' E 012°24'0 0.1
2017-Apr-18 12:59N 45°20' E 012°24'0 0.0
2017-Apr-18 12:29N 45°20' E 012°24'0 0.0
2017-Apr-18 11:59N 45°20' E 012°24'0 0.0
2017-Apr-18 11:29N 45°20' E 012°24'0 0.1
2017-Apr-18 10:59N 45°20' E 012°24'0 0.0
2017-Apr-18 10:29N 45°20' E 012°24'0 0.1
2017-Apr-18 09:59N 45°20' E 012°24'0 0.1
2017-Apr-18 09:29N 45°20' E 012°24'0 0.0
2017-Apr-18 08:59N 45°20' E 012°24'0 0.0
2017-Apr-18 08:29N 45°20' E 012°24'0 0.2
2017-Apr-18 07:59N 45°20' E 012°24'0 0.1
2017-Apr-18 07:29N 45°20' E 012°24'0 0.0
2017-Apr-18 06:59N 45°20' E 012°24'0 0.0
2017-Apr-18 06:29N 45°20' E 012°24'0 0.0
2017-Apr-18 05:59N 45°20' E 012°24'0 0.0
2017-Apr-18 05:29N 45°20' E 012°24'0 0.0
2017-Apr-18 04:59N 45°20' E 012°24'0 0.0
2017-Apr-18 04:29N 45°20' E 012°24'0 0.0
2017-Apr-18 03:59N 45°20' E 012°24'0 0.1
2017-Apr-18 03:29N 45°20' E 012°24'0 0.1
2017-Apr-18 02:59N 45°20' E 012°24'0 0.0
2017-Apr-18 02:29N 45°20' E 012°24'0 0.0
2017-Apr-18 01:59N 45°20' E 012°24'0 0.0
2017-Apr-18 01:29N 45°20' E 012°25'0 0.0
2017-Apr-18 00:59N 45°20' E 012°25'0 0.0
2017-Apr-18 00:29N 45°20' E 012°24'0 0.1
2017-Apr-17 23:59N 45°20' E 012°25'0 0.2
2017-Apr-17 23:29N 45°20' E 012°25'0 0.1
2017-Apr-17 22:59N 45°20' E 012°24'0 0.0
2017-Apr-17 22:29N 45°20' E 012°24'0 0.0
2017-Apr-17 21:59N 45°20' E 012°24'0 0.0
2017-Apr-17 21:29N 45°20' E 012°24'0 0.0
2017-Apr-17 20:59N 45°20' E 012°24'0 0.0
2017-Apr-17 20:29N 45°20' E 012°24'0 0.0
2017-Apr-17 19:59N 45°20' E 012°24'0 0.0
2017-Apr-17 19:29N 45°20' E 012°24'0 0.0
2017-Apr-17 18:59N 45°20' E 012°24'0 0.0
2017-Apr-17 18:29N 45°20' E 012°24'0 0.0
2017-Apr-17 17:59N 45°20' E 012°24'0 0.0
2017-Apr-17 17:29N 45°20' E 012°24'0 0.0
2017-Apr-17 16:59N 45°20' E 012°24'0 0.0
2017-Apr-17 16:23N 45°20' E 012°24'0 0.0
2017-Apr-17 15:59N 45°20' E 012°24'0 0.0
2017-Apr-17 15:29N 45°20' E 012°24'0 0.0
2017-Apr-17 14:59N 45°20' E 012°24'0 0.0
2017-Apr-17 14:29N 45°20' E 012°24'0 0.0
2017-Apr-17 13:29N 45°20' E 012°24'0 0.0
2017-Apr-17 12:59N 45°20' E 012°24'0 0.0
2017-Apr-17 12:29N 45°20' E 012°24'0 0.0
2017-Apr-17 11:59N 45°20' E 012°24'0 0.0
2017-Apr-17 11:29N 45°20' E 012°24'0 0.0
2017-Apr-17 10:59N 45°20' E 012°24'0 0.0
2017-Apr-17 10:29N 45°20' E 012°24'0 0.0
2017-Apr-17 09:59N 45°20' E 012°24'0 0.0
2017-Apr-17 09:29N 45°20' E 012°24'0 0.0
2017-Apr-17 08:59N 45°20' E 012°24'0 0.0
2017-Apr-17 08:29N 45°20' E 012°24'0 0.0
2017-Apr-17 07:59N 45°20' E 012°24'0 0.0
2017-Apr-17 07:29N 45°20' E 012°24'0 0.0
2017-Apr-17 06:59N 45°20' E 012°24'0 0.0
2017-Apr-17 06:29N 45°20' E 012°24'0 0.0
2017-Apr-17 05:59N 45°20' E 012°24'0 0.0
2017-Apr-17 05:29N 45°20' E 012°24'0 0.0
2017-Apr-17 04:59N 45°20' E 012°24'0 0.0
2017-Apr-17 04:29N 45°20' E 012°24'0 0.0
2017-Apr-17 03:59N 45°20' E 012°24'0 0.0
2017-Apr-17 03:29N 45°20' E 012°24'0 0.0
2017-Apr-17 02:59N 45°20' E 012°24'0 0.0
2017-Apr-17 02:29N 45°20' E 012°24'0 0.0
2017-Apr-17 01:59N 45°20' E 012°24'0 0.0
2017-Apr-17 01:29N 45°20' E 012°24'0 0.0
2017-Apr-17 00:59N 45°20' E 012°24'0 0.0
2017-Apr-17 00:29N 45°20' E 012°24'0 0.0
2017-Apr-16 23:59N 45°20' E 012°24'0 0.0
2017-Apr-16 23:29N 45°20' E 012°24'0 0.0
2017-Apr-16 22:59N 45°20' E 012°24'0 0.1
2017-Apr-16 22:29N 45°20' E 012°24'0 0.0
2017-Apr-16 21:59N 45°20' E 012°24'0 0.0
2017-Apr-16 21:29N 45°20' E 012°24'0 0.0
2017-Apr-16 20:59N 45°20' E 012°24'0 0.1
2017-Apr-16 20:29N 45°20' E 012°24'0 0.1
2017-Apr-16 19:59N 45°20' E 012°24'0 0.1
2017-Apr-16 19:29N 45°20' E 012°24'0 0.1
2017-Apr-16 18:59N 45°20' E 012°24'0 0.0
2017-Apr-16 18:29N 45°20' E 012°24'0 0.1
2017-Apr-16 18:00N 45°20' E 012°24'0 0.0
2017-Apr-16 17:29N 45°20' E 012°24'0 0.0
2017-Apr-16 16:59N 45°20' E 012°24'0 0.0
2017-Apr-16 16:29N 45°20' E 012°24'0 0.1
2017-Apr-16 15:59N 45°20' E 012°25'0 0.0
2017-Apr-16 15:29N 45°20' E 012°24'0 0.0
2017-Apr-16 14:59N 45°20' E 012°24'0 0.0
2017-Apr-16 13:59N 45°20' E 012°24'0 0.0
2017-Apr-16 13:29N 45°20' E 012°24'0 0.1
2017-Apr-16 12:59N 45°20' E 012°24'0 0.1
2017-Apr-16 12:29N 45°20' E 012°24'0 0.1
2017-Apr-16 11:59N 45°20' E 012°25'0 0.0
2017-Apr-16 11:29N 45°20' E 012°25'0 0.0
2017-Apr-16 10:59N 45°20' E 012°25'0 0.0
2017-Apr-16 10:29N 45°20' E 012°25'0 0.0
2017-Apr-16 09:59N 45°20' E 012°25'0 0.0
2017-Apr-16 09:29N 45°20' E 012°25'0 0.0
2017-Apr-16 08:59N 45°20' E 012°25'0 0.0
2017-Apr-16 08:29N 45°20' E 012°25'0 0.0
2017-Apr-16 07:59N 45°20' E 012°25'0 0.0
2017-Apr-16 07:29N 45°20' E 012°25'0 0.0
2017-Apr-16 06:59N 45°20' E 012°25'0 0.0
2017-Apr-16 06:29N 45°20' E 012°25'0 0.0
2017-Apr-16 05:59N 45°20' E 012°25'0 0.0
2017-Apr-16 05:29N 45°20' E 012°25'0 0.0
2017-Apr-16 04:59N 45°20' E 012°25'0 0.0
2017-Apr-16 04:26N 45°20' E 012°25'0 0.0
2017-Apr-16 03:59N 45°20' E 012°25'0 0.0
2017-Apr-16 03:26N 45°20' E 012°25'0 0.0
2017-Apr-16 02:56N 45°20' E 012°25'0 0.0
2017-Apr-16 02:23N 45°20' E 012°25'0 0.0
2017-Apr-16 01:53N 45°20' E 012°25'0 0.0
2017-Apr-16 01:20N 45°20' E 012°25'0 0.0
2017-Apr-16 00:56N 45°20' E 012°25'0 0.0
2017-Apr-16 00:29N 45°20' E 012°25'0 0.0
2017-Apr-15 23:56N 45°20' E 012°24'0 0.0
2017-Apr-15 23:26N 45°20' E 012°24'0 0.0
2017-Apr-15 22:56N 45°20' E 012°24'0 0.0
2017-Apr-15 22:26N 45°20' E 012°24'0 0.0
2017-Apr-15 21:59N 45°20' E 012°24'0 0.0
2017-Apr-15 21:29N 45°20' E 012°24'0 0.0
2017-Apr-15 20:59N 45°20' E 012°24'0 0.0
2017-Apr-15 20:29N 45°20' E 012°24'0 0.0
2017-Apr-15 19:59N 45°20' E 012°24'0 0.0
2017-Apr-15 19:29N 45°20' E 012°24'0 0.0
2017-Apr-15 18:59N 45°20' E 012°24'0 0.0
2017-Apr-15 18:29N 45°20' E 012°24'0 0.0
2017-Apr-15 17:59N 45°20' E 012°24'0 0.0
2017-Apr-15 17:29N 45°20' E 012°24'0 0.1
2017-Apr-15 16:59N 45°20' E 012°24'0 0.0
2017-Apr-15 16:29N 45°20' E 012°24'0 0.0
2017-Apr-15 15:53N 45°20' E 012°24'0 0.0
2017-Apr-15 15:29N 45°20' E 012°24'0 0.1
2017-Apr-15 14:59N 45°20' E 012°24'0 0.1
2017-Apr-15 14:29N 45°20' E 012°24'0 0.0
2017-Apr-15 13:29N 45°20' E 012°24'0 0.0
2017-Apr-15 12:59N 45°20' E 012°24'0 0.0
2017-Apr-15 12:29N 45°20' E 012°24'0 0.0
2017-Apr-15 11:59N 45°20' E 012°24'0 0.0
2017-Apr-15 11:29N 45°20' E 012°24'0 0.0
2017-Apr-15 10:59N 45°20' E 012°24'0 0.0
2017-Apr-15 10:29N 45°20' E 012°24'0 0.0
2017-Apr-15 09:59N 45°20' E 012°24'0 0.0
2017-Apr-15 09:29N 45°20' E 012°24'0 0.0
2017-Apr-15 08:59N 45°20' E 012°24'0 0.0
2017-Apr-15 08:29N 45°20' E 012°24'0 0.0
2017-Apr-15 07:59N 45°20' E 012°24'0 0.0
2017-Apr-15 07:29N 45°20' E 012°24'0 0.0
2017-Apr-15 06:59N 45°20' E 012°24'0 0.1
2017-Apr-15 06:29N 45°20' E 012°25'0 0.2
2017-Apr-15 05:59N 45°20' E 012°25'0 0.0
2017-Apr-15 05:29N 45°20' E 012°24'0 0.1
2017-Apr-15 04:59N 45°20' E 012°24'0 0.0
2017-Apr-15 04:29N 45°20' E 012°24'0 0.0
2017-Apr-15 03:59N 45°20' E 012°24'0 0.1
2017-Apr-15 03:29N 45°20' E 012°24'0 0.1
2017-Apr-15 02:56N 45°20' E 012°24'0 0.0
2017-Apr-15 02:26N 45°20' E 012°24'0 0.0
2017-Apr-15 01:56N 45°20' E 012°24'0 0.0
2017-Apr-15 01:29N 45°20' E 012°24'  

Dump ship's entire track history